Time,TemperatureF,DewpointF,PressureIn,WindDirection,WindDirectionDegrees,WindSpeedMPH,WindSpeedGustMPH,Humidity,HourlyPrecipIn,Conditions,Clouds,dailyrainin,SoftwareType,DateUTC
2013-04-06 00:01:00,63.9,35.1,29.65,SW,225,7.2,7.2,34,0.00,,,0.00,meteobridge,2013-04-05 21:01:00,
2013-04-06 00:06:00,63.7,34.9,29.65,SW,225,1.6,3.6,34,0.00,,,0.00,meteobridge,2013-04-05 21:06:00,
2013-04-06 00:11:00,63.5,35.4,29.62,SE,135,2.5,3.4,35,0.00,,,0.00,meteobridge,2013-04-05 21:11:00,
2013-04-06 00:16:00,63.3,35.2,29.62,WSW,248,1.6,4.3,35,0.00,,,0.00,meteobridge,2013-04-05 21:16:00,
2013-04-06 00:22:00,63.1,35.1,29.62,NW,315,2.0,3.6,35,0.00,,,0.00,meteobridge,2013-04-05 21:22:00,
2013-04-06 00:27:00,63.1,35.1,29.65,NNW,338,2.9,6.3,35,0.00,,,0.00,meteobridge,2013-04-05 21:27:00,
2013-04-06 00:32:00,63.3,35.2,29.65,SSW,202,2.9,2.9,35,0.00,,,0.00,meteobridge,2013-04-05 21:32:00,
2013-04-06 00:37:00,63.3,34.5,29.65,South,180,2.2,2.9,34,0.00,,,0.00,meteobridge,2013-04-05 21:37:00,
2013-04-06 00:42:00,63.3,34.5,29.65,South,180,4.0,6.3,34,0.00,,,0.00,meteobridge,2013-04-05 21:42:00,
2013-04-06 00:47:00,63.3,34.5,29.65,SE,135,8.1,8.1,34,0.00,,,0.00,meteobridge,2013-04-05 21:47:00,
2013-04-06 00:52:00,63.5,34.7,29.65,East,90,4.0,6.5,34,0.00,,,0.00,meteobridge,2013-04-05 21:52:00,
2013-04-06 00:57:00,63.5,34.7,29.68,South,180,5.4,6.3,34,0.00,,,0.00,meteobridge,2013-04-05 21:57:00,
2013-04-06 01:02:00,63.5,34.7,29.68,SSE,158,1.1,5.6,34,0.00,,,0.00,meteobridge,2013-04-05 22:02:00,
2013-04-06 01:07:00,63.3,34.5,29.68,NE,45,1.3,2.5,34,0.00,,,0.00,meteobridge,2013-04-05 22:07:00,
2013-04-06 01:12:00,62.8,34.0,29.65,East,90,2.5,2.5,34,0.00,,,0.00,meteobridge,2013-04-05 22:12:00,
2013-04-06 01:18:00,62.2,33.6,29.65,ESE,112,1.6,1.6,34,0.00,,,0.00,meteobridge,2013-04-05 22:18:00,
2013-04-06 01:23:00,61.9,33.3,29.65,NE,45,1.3,1.6,34,0.00,,,0.00,meteobridge,2013-04-05 22:23:00,
2013-04-06 01:28:00,61.7,33.8,29.65,North,0,2.5,3.1,35,0.00,,,0.00,meteobridge,2013-04-05 22:28:00,
2013-04-06 01:33:00,61.5,33.6,29.65,ESE,112,1.6,3.4,35,0.00,,,0.00,meteobridge,2013-04-05 22:33:00,
2013-04-06 01:38:00,61.3,33.4,29.65,NNE,22,1.6,2.2,35,0.00,,,0.00,meteobridge,2013-04-05 22:38:00,
2013-04-06 01:43:00,61.3,34.2,29.65,NNE,22,0.9,2.5,36,0.00,,,0.00,meteobridge,2013-04-05 22:43:00,
2013-04-06 01:49:00,61.0,33.8,29.65,ESE,112,2.2,2.7,36,0.00,,,0.00,meteobridge,2013-04-05 22:49:00,
2013-04-06 01:54:00,61.0,34.5,29.65,NNE,22,2.0,3.1,37,0.00,,,0.00,meteobridge,2013-04-05 22:54:00,
2013-04-06 01:59:00,61.0,34.5,29.65,NNE,22,3.1,3.1,37,0.00,,,0.00,meteobridge,2013-04-05 22:59:00,
2013-04-06 02:04:00,61.0,35.2,29.65,NNE,22,2.9,2.9,38,0.00,,,0.00,meteobridge,2013-04-05 23:04:00,
2013-04-06 02:09:00,61.0,35.2,29.65,ENE,68,4.7,4.7,38,0.00,,,0.00,meteobridge,2013-04-05 23:09:00,
2013-04-06 02:14:00,61.0,35.2,29.65,ENE,68,1.6,3.4,38,0.00,,,0.00,meteobridge,2013-04-05 23:14:00,
2013-04-06 02:19:00,61.0,35.2,29.65,ESE,112,1.6,3.6,38,0.00,,,0.00,meteobridge,2013-04-05 23:19:00,
2013-04-06 02:24:00,61.0,35.2,29.65,NNE,22,1.6,2.9,38,0.00,,,0.00,meteobridge,2013-04-05 23:24:00,
2013-04-06 02:29:00,61.0,35.2,29.65,North,0,2.0,2.7,38,0.00,,,0.00,meteobridge,2013-04-05 23:29:00,
2013-04-06 02:34:00,60.8,34.3,29.65,NE,45,0.0,1.3,37,0.00,,,0.00,meteobridge,2013-04-05 23:34:00,
2013-04-06 02:39:00,60.6,34.9,29.65,NNE,22,1.3,1.3,38,0.00,,,0.00,meteobridge,2013-04-05 23:39:00,
2013-04-06 02:44:00,60.6,35.6,29.65,North,0,2.0,4.7,39,0.00,,,0.00,meteobridge,2013-04-05 23:44:00,
2013-04-06 02:49:00,60.6,35.6,29.65,NNE,22,0.0,2.0,39,0.00,,,0.00,meteobridge,2013-04-05 23:49:00,
2013-04-06 02:54:00,60.4,35.4,29.62,NNE,22,2.2,2.2,39,0.00,,,0.00,meteobridge,2013-04-05 23:54:00,
2013-04-06 03:00:00,60.3,35.2,29.62,ENE,68,0.0,2.0,39,0.00,,,0.00,meteobridge,2013-04-06 00:00:00,
2013-04-06 03:05:00,60.1,35.1,29.62,NNE,22,2.5,2.7,39,0.00,,,0.00,meteobridge,2013-04-06 00:05:00,
2013-04-06 03:10:00,60.1,36.3,29.62,NNE,22,3.8,3.8,41,0.00,,,0.00,meteobridge,2013-04-06 00:10:00,
2013-04-06 03:15:00,59.9,35.6,29.62,South,180,2.7,2.7,40,0.00,,,0.00,meteobridge,2013-04-06 00:15:00,
2013-04-06 03:20:00,59.9,36.1,29.62,NNW,338,1.1,2.2,41,0.00,,,0.00,meteobridge,2013-04-06 00:20:00,
2013-04-06 03:25:00,59.7,36.0,29.62,ENE,68,1.6,2.2,41,0.00,,,0.00,meteobridge,2013-04-06 00:25:00,
2013-04-06 03:30:00,59.7,36.0,29.62,East,90,0.0,0.9,41,0.00,,,0.00,meteobridge,2013-04-06 00:30:00,
2013-04-06 03:35:00,59.4,35.8,29.62,East,90,2.0,2.0,41,0.00,,,0.00,meteobridge,2013-04-06 00:35:00,
2013-04-06 03:40:00,59.4,35.8,29.62,NNE,22,1.1,2.2,41,0.00,,,0.00,meteobridge,2013-04-06 00:40:00,
2013-04-06 03:45:00,59.2,36.1,29.62,ESE,112,0.0,1.3,42,0.00,,,0.00,meteobridge,2013-04-06 00:45:00,
2013-04-06 03:50:00,59.0,35.4,29.62,ESE,112,0.0,2.5,41,0.00,,,0.00,meteobridge,2013-04-06 00:50:00,
2013-04-06 03:55:00,59.2,36.1,29.62,North,0,2.5,2.9,42,0.00,,,0.00,meteobridge,2013-04-06 00:55:00,
2013-04-06 04:00:00,59.4,36.9,29.62,NNE,22,2.0,4.0,43,0.00,,,0.00,meteobridge,2013-04-06 01:00:00,
2013-04-06 04:05:00,59.2,36.7,29.62,NE,45,1.6,1.6,43,0.00,,,0.00,meteobridge,2013-04-06 01:05:00,
2013-04-06 04:10:00,59.0,36.5,29.62,East,90,1.3,2.0,43,0.00,,,0.00,meteobridge,2013-04-06 01:10:00,
2013-04-06 04:15:00,58.8,36.3,29.62,NE,45,2.0,2.0,43,0.00,,,0.00,meteobridge,2013-04-06 01:15:00,
2013-04-06 04:20:00,58.8,36.3,29.62,NE,45,0.0,1.1,43,0.00,,,0.00,meteobridge,2013-04-06 01:20:00,
2013-04-06 04:25:00,58.6,36.3,29.62,ENE,68,1.1,1.3,43,0.00,,,0.00,meteobridge,2013-04-06 01:25:00,
2013-04-06 04:30:00,58.5,36.1,29.62,ENE,68,0.0,0.0,43,0.00,,,0.00,meteobridge,2013-04-06 01:30:00,
2013-04-06 04:36:00,58.5,36.1,29.62,NNE,22,1.3,1.3,43,0.00,,,0.00,meteobridge,2013-04-06 01:36:00,
2013-04-06 04:41:00,58.5,36.1,29.62,NNE,22,2.2,2.5,43,0.00,,,0.00,meteobridge,2013-04-06 01:41:00,
2013-04-06 04:47:00,58.6,36.3,29.62,North,0,2.5,2.9,43,0.00,,,0.00,meteobridge,2013-04-06 01:47:00,
2013-04-06 04:53:00,58.5,36.1,29.62,North,0,1.6,2.5,43,0.00,,,0.00,meteobridge,2013-04-06 01:53:00,
2013-04-06 04:58:00,58.5,36.1,29.62,NE,45,1.1,2.5,43,0.00,,,0.00,meteobridge,2013-04-06 01:58:00,
2013-04-06 05:03:00,58.5,36.1,29.62,NNE,22,1.3,1.6,43,0.00,,,0.00,meteobridge,2013-04-06 02:03:00,
2013-04-06 05:09:00,58.3,36.0,29.62,NNE,22,1.3,1.6,43,0.00,,,0.00,meteobridge,2013-04-06 02:09:00,
2013-04-06 05:14:00,58.1,35.8,29.62,ENE,68,0.0,1.3,43,0.00,,,0.00,meteobridge,2013-04-06 02:14:00,
2013-04-06 05:19:00,58.1,35.8,29.62,ENE,68,1.1,1.6,43,0.00,,,0.00,meteobridge,2013-04-06 02:19:00,
2013-04-06 05:24:00,57.9,35.6,29.62,NE,45,2.2,2.2,43,0.00,,,0.00,meteobridge,2013-04-06 02:24:00,
2013-04-06 05:29:00,57.9,35.6,29.62,NNE,22,1.6,2.7,43,0.00,,,0.00,meteobridge,2013-04-06 02:29:00,
2013-04-06 05:34:00,57.9,35.6,29.62,NNE,22,0.0,1.3,43,0.00,,,0.00,meteobridge,2013-04-06 02:34:00,
2013-04-06 05:40:00,57.7,35.4,29.62,NE,45,0.0,0.0,43,0.00,,,0.00,meteobridge,2013-04-06 02:40:00,
2013-04-06 05:46:00,57.7,35.4,29.62,NNE,22,1.6,1.6,43,0.00,,,0.00,meteobridge,2013-04-06 02:46:00,
2013-04-06 05:52:00,57.7,35.4,29.62,North,0,2.0,2.5,43,0.00,,,0.00,meteobridge,2013-04-06 02:52:00,
2013-04-06 05:57:00,57.7,34.9,29.62,North,0,2.0,2.5,42,0.00,,,0.00,meteobridge,2013-04-06 02:57:00,
2013-04-06 06:03:00,57.7,34.2,29.62,North,0,1.6,1.6,41,0.00,,,0.00,meteobridge,2013-04-06 03:03:00,
2013-04-06 06:08:00,57.7,33.6,29.62,NNE,22,0.0,0.9,40,0.00,,,0.00,meteobridge,2013-04-06 03:08:00,
2013-04-06 06:13:00,57.6,33.4,29.62,NNE,22,1.6,1.6,40,0.00,,,0.00,meteobridge,2013-04-06 03:13:00,
2013-04-06 06:18:00,57.6,33.4,29.62,NNE,22,0.0,2.5,40,0.00,,,0.00,meteobridge,2013-04-06 03:18:00,
2013-04-06 06:23:00,57.6,33.4,29.62,NNE,22,1.3,1.3,40,0.00,,,0.00,meteobridge,2013-04-06 03:23:00,
2013-04-06 06:28:00,57.4,33.3,29.65,NE,45,1.3,1.3,40,0.00,,,0.00,meteobridge,2013-04-06 03:28:00,
2013-04-06 06:33:00,57.2,32.5,29.65,ENE,68,0.9,1.3,39,0.00,,,0.00,meteobridge,2013-04-06 03:33:00,
2013-04-06 06:38:00,57.0,32.9,29.65,ENE,68,1.6,1.6,40,0.00,,,0.00,meteobridge,2013-04-06 03:38:00,
2013-04-06 06:43:00,56.8,32.2,29.65,East,90,1.6,1.6,39,0.00,,,0.00,meteobridge,2013-04-06 03:43:00,
2013-04-06 06:48:00,56.8,32.2,29.65,East,90,0.0,1.3,39,0.00,,,0.00,meteobridge,2013-04-06 03:48:00,
2013-04-06 06:54:00,56.8,32.2,29.65,East,90,0.0,0.9,39,0.00,,,0.00,meteobridge,2013-04-06 03:54:00,
2013-04-06 06:59:00,56.7,32.0,29.65,East,90,0.0,0.0,39,0.00,,,0.00,meteobridge,2013-04-06 03:59:00,
2013-04-06 07:00:00,56.7,32.0,29.65,East,90,0.0,0.0,39,0.00,,,0.00,meteobridge,2013-04-06 04:00:00,
2013-04-06 07:01:00,56.7,32.0,29.65,East,90,0.0,0.0,39,0.00,,,0.00,meteobridge,2013-04-06 04:01:00,
2013-04-06 07:06:00,56.7,32.0,29.65,East,90,0.0,0.0,39,0.00,,,0.00,meteobridge,2013-04-06 04:06:00,
2013-04-06 07:11:00,56.7,32.0,29.65,East,90,0.0,0.0,39,0.00,,,0.00,meteobridge,2013-04-06 04:11:00,
2013-04-06 07:17:00,56.8,32.9,29.65,East,90,0.0,0.0,40,0.00,,,0.00,meteobridge,2013-04-06 04:17:00,
2013-04-06 07:22:00,56.8,32.9,29.65,East,90,0.0,0.0,40,0.00,,,0.00,meteobridge,2013-04-06 04:22:00,
2013-04-06 07:28:00,57.2,32.5,29.65,NNE,22,2.5,2.5,39,0.00,,,0.00,meteobridge,2013-04-06 04:28:00,
2013-04-06 07:33:00,57.7,32.9,29.65,NNE,22,0.9,2.7,39,0.00,,,0.00,meteobridge,2013-04-06 04:33:00,
2013-04-06 07:38:00,57.9,33.1,29.65,ENE,68,1.3,1.3,39,0.00,,,0.00,meteobridge,2013-04-06 04:38:00,
2013-04-06 07:43:00,58.3,33.4,29.65,NE,45,1.1,2.0,39,0.00,,,0.00,meteobridge,2013-04-06 04:43:00,
2013-04-06 07:48:00,58.8,34.0,29.65,NNE,22,0.0,0.0,39,0.00,,,0.00,meteobridge,2013-04-06 04:48:00,
2013-04-06 07:53:00,59.4,33.8,29.65,NNE,22,0.0,0.0,38,0.00,,,0.00,meteobridge,2013-04-06 04:53:00,
2013-04-06 07:58:00,59.9,34.3,29.65,NNE,22,2.5,2.5,38,0.00,,,0.00,meteobridge,2013-04-06 04:58:00,
2013-04-06 08:03:00,60.4,34.2,29.65,East,90,0.9,1.3,37,0.00,,,0.00,meteobridge,2013-04-06 05:03:00,
2013-04-06 08:09:00,61.0,34.5,29.65,SE,135,1.3,2.7,37,0.00,,,0.00,meteobridge,2013-04-06 05:09:00,
2013-04-06 08:14:00,61.7,34.5,29.65,ESE,112,0.0,1.1,36,0.00,,,0.00,meteobridge,2013-04-06 05:14:00,
2013-04-06 08:19:00,62.6,35.2,29.65,ESE,112,0.0,0.0,36,0.00,,,0.00,meteobridge,2013-04-06 05:19:00,
2013-04-06 08:24:00,63.1,35.1,29.65,NNE,22,2.0,2.0,35,0.00,,,0.00,meteobridge,2013-04-06 05:24:00,
2013-04-06 08:29:00,63.9,35.8,29.65,North,0,1.1,1.1,35,0.00,,,0.00,meteobridge,2013-04-06 05:29:00,
2013-04-06 08:34:00,64.8,35.8,29.65,North,0,0.0,0.0,34,0.00,,,0.00,meteobridge,2013-04-06 05:34:00,
2013-04-06 08:39:00,65.7,36.5,29.65,ESE,112,1.1,2.0,34,0.00,,,0.00,meteobridge,2013-04-06 05:39:00,
2013-04-06 08:44:00,66.6,36.7,29.65,ESE,112,1.1,1.3,33,0.00,,,0.00,meteobridge,2013-04-06 05:44:00,
2013-04-06 08:49:00,67.3,37.2,29.65,NE,45,0.0,1.6,33,0.00,,,0.00,meteobridge,2013-04-06 05:49:00,
2013-04-06 08:54:00,68.2,37.2,29.65,East,90,0.0,0.0,32,0.00,,,0.00,meteobridge,2013-04-06 05:54:00,
2013-04-06 08:59:00,69.3,35.6,29.65,SSE,158,0.0,0.0,29,0.00,,,0.00,meteobridge,2013-04-06 05:59:00,
2013-04-06 09:04:00,70.2,36.5,29.65,SE,135,1.3,2.0,29,0.00,,,0.00,meteobridge,2013-04-06 06:04:00,
2013-04-06 09:09:00,71.4,35.8,29.65,SE,135,0.0,1.3,27,0.00,,,0.00,meteobridge,2013-04-06 06:09:00,
2013-04-06 09:15:00,72.1,34.3,29.65,SE,135,0.0,0.0,25,0.00,,,0.00,meteobridge,2013-04-06 06:15:00,
2013-04-06 09:20:00,72.9,34.0,29.65,NNE,22,0.0,0.0,24,0.00,,,0.00,meteobridge,2013-04-06 06:20:00,
2013-04-06 09:25:00,73.2,33.3,29.65,NNE,22,0.0,1.1,23,0.00,,,0.00,meteobridge,2013-04-06 06:25:00,
2013-04-06 09:30:00,73.0,32.0,29.65,NW,315,1.6,1.6,22,0.00,,,0.00,meteobridge,2013-04-06 06:30:00,
2013-04-06 09:35:00,73.4,31.1,29.65,SW,225,0.0,2.7,21,0.00,,,0.00,meteobridge,2013-04-06 06:35:00,
2013-04-06 09:40:00,74.1,31.8,29.65,South,180,2.9,2.9,21,0.00,,,0.00,meteobridge,2013-04-06 06:40:00,
2013-04-06 09:45:00,74.3,31.8,29.65,West,270,2.0,2.0,21,0.00,,,0.00,meteobridge,2013-04-06 06:45:00,
2013-04-06 09:50:00,74.8,32.4,29.65,SSE,158,1.3,2.7,21,0.00,,,0.00,meteobridge,2013-04-06 06:50:00,
2013-04-06 09:55:00,74.7,32.2,29.65,SSE,158,1.3,2.5,21,0.00,,,0.00,meteobridge,2013-04-06 06:55:00,
2013-04-06 10:00:00,74.7,32.2,29.65,South,180,1.1,4.0,21,0.00,,,0.00,meteobridge,2013-04-06 07:00:00,
2013-04-06 10:05:00,74.5,32.0,29.65,East,90,1.1,2.5,21,0.00,,,0.00,meteobridge,2013-04-06 07:05:00,
2013-04-06 10:10:00,75.7,33.1,29.65,NE,45,1.1,1.1,21,0.00,,,0.00,meteobridge,2013-04-06 07:10:00,
2013-04-06 10:15:00,75.7,33.1,29.65,NNW,338,2.5,2.5,21,0.00,,,0.00,meteobridge,2013-04-06 07:15:00,
2013-04-06 10:20:00,75.7,31.8,29.65,NNW,338,1.6,2.5,20,0.00,,,0.00,meteobridge,2013-04-06 07:20:00,
2013-04-06 10:25:00,76.1,32.2,29.65,WNW,292,0.0,2.0,20,0.00,,,0.00,meteobridge,2013-04-06 07:25:00,
2013-04-06 10:32:00,75.9,32.0,29.65,NNW,338,2.0,-999.0,20,0.00,,,0.00,meteobridge,2013-04-06 07:32:00,
2013-04-06 10:37:00,77.2,33.1,29.65,SSE,158,3.1,3.1,20,0.00,,,0.00,meteobridge,2013-04-06 07:37:00,
2013-04-06 10:42:00,77.5,33.3,29.62,WNW,292,2.7,2.7,20,0.00,,,0.00,meteobridge,2013-04-06 07:42:00,
2013-04-06 10:48:00,76.6,30.0,29.62,NW,315,1.1,2.0,18,0.00,,,0.00,meteobridge,2013-04-06 07:48:00,
2013-04-06 10:53:00,77.4,33.3,29.62,SSE,158,1.1,2.2,20,0.00,,,0.00,meteobridge,2013-04-06 07:53:00,
2013-04-06 10:58:00,77.5,30.7,29.65,NNE,22,2.7,2.7,18,0.00,,,0.00,meteobridge,2013-04-06 07:58:00,
2013-04-06 11:03:00,76.6,30.0,29.65,WNW,292,2.5,4.7,18,0.00,,,0.00,meteobridge,2013-04-06 08:03:00,
2013-04-06 11:08:00,77.4,30.6,29.65,NNW,338,1.6,3.1,18,0.00,,,0.00,meteobridge,2013-04-06 08:08:00,
2013-04-06 11:13:00,78.1,33.8,29.65,SE,135,2.0,2.7,20,0.00,,,0.00,meteobridge,2013-04-06 08:13:00,
2013-04-06 11:18:00,78.3,31.3,29.65,East,90,1.6,2.5,18,0.00,,,0.00,meteobridge,2013-04-06 08:18:00,
2013-04-06 11:23:00,77.9,31.1,29.65,ESE,112,2.0,2.2,18,0.00,,,0.00,meteobridge,2013-04-06 08:23:00,
2013-04-06 11:28:00,78.4,31.5,29.65,NW,315,1.3,2.9,18,0.00,,,0.00,meteobridge,2013-04-06 08:28:00,
2013-04-06 11:33:00,77.7,30.9,29.65,NNW,338,2.5,2.7,18,0.00,,,0.00,meteobridge,2013-04-06 08:33:00,
2013-04-06 11:38:00,78.1,31.1,29.65,SE,135,2.9,3.1,18,0.00,,,0.00,meteobridge,2013-04-06 08:38:00,
2013-04-06 11:43:00,78.3,31.3,29.62,East,90,2.0,2.7,18,0.00,,,0.00,meteobridge,2013-04-06 08:43:00,
2013-04-06 11:48:00,78.6,31.6,29.62,SE,135,3.4,3.8,18,0.00,,,0.00,meteobridge,2013-04-06 08:48:00,
2013-04-06 11:53:00,79.2,30.6,29.62,NNW,338,1.3,2.2,17,0.00,,,0.00,meteobridge,2013-04-06 08:53:00,
2013-04-06 11:58:00,79.5,30.9,29.62,SSW,202,2.0,4.5,17,0.00,,,0.00,meteobridge,2013-04-06 08:58:00,
2013-04-06 12:03:00,79.7,31.1,29.62,North,0,0.9,2.7,17,0.00,,,0.00,meteobridge,2013-04-06 09:03:00,
2013-04-06 12:08:00,80.2,31.5,29.62,SSE,158,2.5,5.4,17,0.00,,,0.00,meteobridge,2013-04-06 09:08:00,
2013-04-06 12:13:00,80.4,31.6,29.62,SE,135,2.5,2.5,17,0.00,,,0.00,meteobridge,2013-04-06 09:13:00,
2013-04-06 12:18:00,79.2,30.6,29.62,NNW,338,2.7,3.8,17,0.00,,,0.00,meteobridge,2013-04-06 09:18:00,
2013-04-06 12:23:00,79.3,30.7,29.62,WNW,292,2.0,3.6,17,0.00,,,0.00,meteobridge,2013-04-06 09:23:00,
2013-04-06 12:29:00,80.2,31.5,29.65,South,180,2.0,2.5,17,0.00,,,0.00,meteobridge,2013-04-06 09:29:00,
2013-04-06 12:34:00,79.7,31.1,29.65,WSW,248,1.6,2.2,17,0.00,,,0.00,meteobridge,2013-04-06 09:34:00,
2013-04-06 12:39:00,80.6,31.8,29.65,NE,45,2.0,2.7,17,0.00,,,0.00,meteobridge,2013-04-06 09:39:00,
2013-04-06 12:44:00,80.6,31.8,29.65,South,180,1.1,3.8,17,0.00,,,0.00,meteobridge,2013-04-06 09:44:00,
2013-04-06 12:49:00,80.8,32.0,29.65,East,90,0.9,2.0,17,0.00,,,0.00,meteobridge,2013-04-06 09:49:00,
2013-04-06 12:54:00,80.2,31.5,29.65,WSW,248,0.9,3.4,17,0.00,,,0.00,meteobridge,2013-04-06 09:54:00,
2013-04-06 12:59:00,81.1,32.2,29.65,SW,225,1.6,2.7,17,0.00,,,0.00,meteobridge,2013-04-06 09:59:00,
2013-04-06 13:04:00,80.6,31.8,29.65,North,0,1.6,1.6,17,0.00,,,0.00,meteobridge,2013-04-06 10:04:00,
2013-04-06 13:09:00,80.4,31.6,29.65,South,180,2.0,3.1,17,0.00,,,0.00,meteobridge,2013-04-06 10:09:00,
2013-04-06 13:14:00,80.6,31.8,29.65,NNW,338,2.5,3.4,17,0.00,,,0.00,meteobridge,2013-04-06 10:14:00,
2013-04-06 13:19:00,79.3,30.7,29.65,SSW,202,0.0,2.0,17,0.00,,,0.00,meteobridge,2013-04-06 10:19:00,
2013-04-06 13:24:00,79.5,30.9,29.65,ENE,68,2.2,2.9,17,0.00,,,0.00,meteobridge,2013-04-06 10:24:00,
2013-04-06 13:29:00,79.3,30.7,29.65,SSE,158,1.3,2.0,17,0.00,,,0.00,meteobridge,2013-04-06 10:29:00,
2013-04-06 13:34:00,78.8,30.4,29.65,NW,315,2.9,2.9,17,0.00,,,0.00,meteobridge,2013-04-06 10:34:00,
2013-04-06 13:39:00,77.4,30.6,29.65,NNW,338,2.2,3.1,18,0.00,,,0.00,meteobridge,2013-04-06 10:39:00,
2013-04-06 13:44:00,76.8,30.2,29.65,NW,315,3.1,3.1,18,0.00,,,0.00,meteobridge,2013-04-06 10:44:00,
2013-04-06 13:49:00,76.5,29.8,29.65,NW,315,2.2,3.1,18,0.00,,,0.00,meteobridge,2013-04-06 10:49:00,
2013-04-06 13:54:00,76.8,30.2,29.65,WNW,292,4.0,4.0,18,0.00,,,0.00,meteobridge,2013-04-06 10:54:00,
2013-04-06 13:59:00,76.1,29.7,29.65,ESE,112,0.9,3.6,18,0.00,,,0.00,meteobridge,2013-04-06 10:59:00,
2013-04-06 14:04:00,76.6,30.0,29.65,NE,45,2.0,2.9,18,0.00,,,0.00,meteobridge,2013-04-06 11:04:00,
2013-04-06 14:10:00,75.9,29.5,29.65,ESE,112,0.9,2.2,18,0.00,,,0.00,meteobridge,2013-04-06 11:10:00,
2013-04-06 14:16:00,75.2,28.8,29.65,WNW,292,2.5,3.4,18,0.00,,,0.00,meteobridge,2013-04-06 11:16:00,
2013-04-06 14:21:00,74.5,28.2,29.65,North,0,2.7,2.9,18,0.00,,,0.00,meteobridge,2013-04-06 11:21:00,
2013-04-06 14:26:00,74.3,28.0,29.62,NNW,338,2.0,2.7,18,0.00,,,0.00,meteobridge,2013-04-06 11:26:00,
2013-04-06 14:31:00,73.8,27.7,29.62,WSW,248,2.0,2.9,18,0.00,,,0.00,meteobridge,2013-04-06 11:31:00,
2013-04-06 14:33:00,73.6,27.5,29.62,SW,225,1.6,3.8,18,0.00,,,0.00,meteobridge,2013-04-06 11:33:00,
2013-04-06 14:38:00,73.6,31.3,29.62,NNW,338,2.2,2.7,21,0.00,,,0.00,meteobridge,2013-04-06 11:38:00,
2013-04-06 14:43:00,73.6,31.3,29.62,North,0,1.3,2.2,21,0.00,,,0.00,meteobridge,2013-04-06 11:43:00,
2013-04-06 14:48:00,73.6,31.3,29.62,South,180,1.3,2.5,21,0.00,,,0.00,meteobridge,2013-04-06 11:48:00,
2013-04-06 14:53:00,73.2,30.9,29.62,North,0,1.6,3.1,21,0.00,,,0.00,meteobridge,2013-04-06 11:53:00,
2013-04-06 14:58:00,73.6,31.3,29.62,NE,45,1.3,3.1,21,0.00,,,0.00,meteobridge,2013-04-06 11:58:00,
2013-04-06 15:03:00,73.4,31.1,29.62,SW,225,2.5,2.7,21,0.00,,,0.00,meteobridge,2013-04-06 12:03:00,
2013-04-06 15:08:00,73.2,32.2,29.62,NNW,338,2.7,3.1,22,0.00,,,0.00,meteobridge,2013-04-06 12:08:00,
2013-04-06 15:13:00,73.2,32.2,29.62,WNW,292,0.0,2.2,22,0.00,,,0.00,meteobridge,2013-04-06 12:13:00,
2013-04-06 15:18:00,73.2,32.2,29.62,SW,225,1.6,2.5,22,0.00,,,0.00,meteobridge,2013-04-06 12:18:00,
2013-04-06 15:23:00,73.0,32.0,29.62,WNW,292,2.2,2.7,22,0.00,,,0.00,meteobridge,2013-04-06 12:23:00,
2013-04-06 15:28:00,73.0,32.0,29.62,NNW,338,2.0,4.3,22,0.00,,,0.00,meteobridge,2013-04-06 12:28:00,
2013-04-06 15:33:00,73.2,32.2,29.62,NNW,338,2.7,2.7,22,0.00,,,0.00,meteobridge,2013-04-06 12:33:00,
2013-04-06 15:38:00,73.2,32.2,29.62,North,0,1.3,2.2,22,0.00,,,0.00,meteobridge,2013-04-06 12:38:00,
2013-04-06 15:43:00,73.4,32.4,29.62,NNW,338,2.2,2.5,22,0.00,,,0.00,meteobridge,2013-04-06 12:43:00,
2013-04-06 15:48:00,73.0,32.0,29.62,North,0,1.1,4.0,22,0.00,,,0.00,meteobridge,2013-04-06 12:48:00,
2013-04-06 15:53:00,73.2,32.2,29.62,NNE,22,0.0,2.9,22,0.00,,,0.00,meteobridge,2013-04-06 12:53:00,
2013-04-06 15:58:00,73.8,31.5,29.62,NNE,22,2.0,2.0,21,0.00,,,0.00,meteobridge,2013-04-06 12:58:00,
2013-04-06 16:03:00,74.1,31.8,29.62,North,0,2.2,2.5,21,0.00,,,0.00,meteobridge,2013-04-06 13:03:00,
2013-04-06 16:09:00,74.5,32.0,29.62,SE,135,0.9,0.9,21,0.00,,,0.00,meteobridge,2013-04-06 13:09:00,
2013-04-06 16:14:00,74.3,31.8,29.62,NNW,338,2.5,2.5,21,0.00,,,0.00,meteobridge,2013-04-06 13:14:00,
2013-04-06 16:19:00,74.5,32.0,29.62,North,0,2.5,2.5,21,0.00,,,0.00,meteobridge,2013-04-06 13:19:00,
2013-04-06 16:24:00,74.5,28.2,29.62,East,90,2.0,3.6,18,0.00,,,0.00,meteobridge,2013-04-06 13:24:00,
2013-04-06 16:29:00,74.8,25.7,29.59,East,90,1.6,2.0,16,0.00,,,0.00,meteobridge,2013-04-06 13:29:00,
2013-04-06 16:34:00,75.0,25.9,29.59,NE,45,0.9,1.6,16,0.00,,,0.00,meteobridge,2013-04-06 13:34:00,
2013-04-06 16:40:00,74.7,25.5,29.59,WNW,292,1.1,2.7,16,0.00,,,0.00,meteobridge,2013-04-06 13:40:00,
2013-04-06 16:45:00,74.3,25.3,29.59,SSW,202,2.5,2.9,16,0.00,,,0.00,meteobridge,2013-04-06 13:45:00,
2013-04-06 16:50:00,73.9,25.0,29.59,NW,315,1.3,2.5,16,0.00,,,0.00,meteobridge,2013-04-06 13:50:00,
2013-04-06 16:55:00,73.6,24.6,29.62,North,0,2.9,3.1,16,0.00,,,0.00,meteobridge,2013-04-06 13:55:00,
2013-04-06 17:01:00,73.8,24.8,29.62,NNW,338,1.6,1.6,16,0.00,,,0.00,meteobridge,2013-04-06 14:01:00,
2013-04-06 17:06:00,73.8,24.8,29.62,NNW,338,0.9,2.5,16,0.00,,,0.00,meteobridge,2013-04-06 14:06:00,
2013-04-06 17:11:00,73.6,24.6,29.59,North,0,1.6,2.9,16,0.00,,,0.00,meteobridge,2013-04-06 14:11:00,
2013-04-06 17:16:00,73.4,27.3,29.59,ENE,68,0.0,1.6,18,0.00,,,0.00,meteobridge,2013-04-06 14:16:00,
2013-04-06 17:21:00,73.4,27.3,29.59,NNW,338,1.1,1.1,18,0.00,,,0.00,meteobridge,2013-04-06 14:21:00,
2013-04-06 17:26:00,73.0,28.4,29.59,NNW,338,1.3,2.2,19,0.00,,,0.00,meteobridge,2013-04-06 14:26:00,
2013-04-06 17:31:00,72.9,28.2,29.59,NNW,338,1.3,2.7,19,0.00,,,0.00,meteobridge,2013-04-06 14:31:00,
2013-04-06 17:36:00,72.7,28.0,29.59,NNW,338,2.7,2.9,19,0.00,,,0.00,meteobridge,2013-04-06 14:36:00,
2013-04-06 17:42:00,72.5,28.0,29.59,NNW,338,1.1,1.1,19,0.00,,,0.00,meteobridge,2013-04-06 14:42:00,
2013-04-06 17:47:00,72.5,28.0,29.59,NNW,338,1.1,2.9,19,0.00,,,0.00,meteobridge,2013-04-06 14:47:00,
2013-04-06 17:52:00,72.3,27.9,29.59,North,0,1.1,2.0,19,0.00,,,0.00,meteobridge,2013-04-06 14:52:00,
2013-04-06 17:58:00,72.3,27.9,29.59,SE,135,1.3,1.3,19,0.00,,,0.00,meteobridge,2013-04-06 14:58:00,
2013-04-06 18:03:00,72.1,27.7,29.59,NE,45,2.9,2.9,19,0.00,,,0.00,meteobridge,2013-04-06 15:03:00,
2013-04-06 18:08:00,72.0,27.5,29.59,NNE,22,1.1,1.1,19,0.00,,,0.00,meteobridge,2013-04-06 15:08:00,
2013-04-06 18:13:00,71.8,27.3,29.59,NNE,22,1.3,1.6,19,0.00,,,0.00,meteobridge,2013-04-06 15:13:00,
2013-04-06 18:19:00,71.6,27.1,29.59,NNE,22,3.8,3.8,19,0.00,,,0.00,meteobridge,2013-04-06 15:19:00,
2013-04-06 18:24:00,71.2,30.6,29.59,NNW,338,3.4,3.4,22,0.00,,,0.00,meteobridge,2013-04-06 15:24:00,
2013-04-06 18:29:00,70.9,30.2,29.59,ENE,68,1.3,3.4,22,0.00,,,0.00,meteobridge,2013-04-06 15:29:00,
2013-04-06 18:34:00,70.7,30.0,29.59,NNE,22,1.6,2.2,22,0.00,,,0.00,meteobridge,2013-04-06 15:34:00,
2013-04-06 18:39:00,70.5,29.8,29.59,NE,45,1.1,1.6,22,0.00,,,0.00,meteobridge,2013-04-06 15:39:00,
2013-04-06 18:44:00,70.5,29.8,29.59,NNE,22,0.0,0.9,22,0.00,,,0.00,meteobridge,2013-04-06 15:44:00,
2013-04-06 18:49:00,70.3,29.7,29.59,NNE,22,1.3,3.1,22,0.00,,,0.00,meteobridge,2013-04-06 15:49:00,
2013-04-06 18:54:00,70.3,29.7,29.59,NNE,22,1.3,2.5,22,0.00,,,0.00,meteobridge,2013-04-06 15:54:00,
2013-04-06 18:59:00,70.2,29.7,29.59,North,0,2.5,2.7,22,0.00,,,0.00,meteobridge,2013-04-06 15:59:00,
2013-04-06 19:04:00,70.2,29.7,29.59,NNE,22,2.7,2.7,22,0.00,,,0.00,meteobridge,2013-04-06 16:04:00,
2013-04-06 19:09:00,70.0,29.5,29.56,NNE,22,2.2,2.5,22,0.00,,,0.00,meteobridge,2013-04-06 16:09:00,
2013-04-06 19:14:00,70.0,29.5,29.56,NNE,22,0.0,0.0,22,0.00,,,0.00,meteobridge,2013-04-06 16:14:00,
2013-04-06 19:19:00,69.8,29.3,29.56,NE,45,1.3,1.3,22,0.00,,,0.00,meteobridge,2013-04-06 16:19:00,
2013-04-06 19:25:00,69.8,29.3,29.59,SE,135,0.0,1.1,22,0.00,,,0.00,meteobridge,2013-04-06 16:25:00,
2013-04-06 19:30:00,69.6,29.1,29.59,East,90,0.9,1.3,22,0.00,,,0.00,meteobridge,2013-04-06 16:30:00,
2013-04-06 19:35:00,69.4,28.9,29.59,ENE,68,0.0,0.0,22,0.00,,,0.00,meteobridge,2013-04-06 16:35:00,
2013-04-06 19:40:00,69.3,28.8,29.59,NNE,22,0.0,2.2,22,0.00,,,0.00,meteobridge,2013-04-06 16:40:00,
2013-04-06 19:45:00,69.1,28.8,29.59,ENE,68,0.9,0.9,22,0.00,,,0.00,meteobridge,2013-04-06 16:45:00,
2013-04-06 19:50:00,68.9,28.6,29.59,NNE,22,0.0,0.0,22,0.00,,,0.00,meteobridge,2013-04-06 16:50:00,
2013-04-06 19:55:00,68.7,29.5,29.59,North,0,2.0,3.1,23,0.00,,,0.00,meteobridge,2013-04-06 16:55:00,
2013-04-06 20:00:00,68.5,29.3,29.59,NE,45,2.5,2.5,23,0.00,,,0.00,meteobridge,2013-04-06 17:00:00,
2013-04-06 20:06:00,68.2,28.9,29.59,East,90,1.1,1.6,23,0.00,,,0.00,meteobridge,2013-04-06 17:06:00,
2013-04-06 20:11:00,68.0,28.9,29.59,ESE,112,2.0,2.0,23,0.00,,,0.00,meteobridge,2013-04-06 17:11:00,
2013-04-06 20:16:00,67.8,31.8,29.59,NNE,22,0.0,1.3,26,0.00,,,0.00,meteobridge,2013-04-06 17:16:00,
2013-04-06 20:21:00,67.6,32.5,29.59,North,0,0.9,2.2,27,0.00,,,0.00,meteobridge,2013-04-06 17:21:00,
2013-04-06 20:26:00,67.5,33.3,29.59,ENE,68,2.5,2.5,28,0.00,,,0.00,meteobridge,2013-04-06 17:26:00,
2013-04-06 20:31:00,67.3,34.0,29.59,NNE,22,1.1,1.3,29,0.00,,,0.00,meteobridge,2013-04-06 17:31:00,
2013-04-06 20:36:00,67.3,35.6,29.59,NNE,22,1.1,1.1,31,0.00,,,0.00,meteobridge,2013-04-06 17:36:00,
2013-04-06 20:41:00,67.3,35.6,29.59,SE,135,2.2,2.2,31,0.00,,,0.00,meteobridge,2013-04-06 17:41:00,
2013-04-06 20:47:00,67.3,34.9,29.59,ESE,112,1.3,1.6,30,0.00,,,0.00,meteobridge,2013-04-06 17:47:00,
2013-04-06 20:52:00,67.3,34.9,29.59,North,0,1.3,3.4,30,0.00,,,0.00,meteobridge,2013-04-06 17:52:00,
2013-04-06 20:57:00,67.1,36.3,29.59,North,0,2.5,2.5,32,0.00,,,0.00,meteobridge,2013-04-06 17:57:00,
2013-04-06 21:02:00,67.1,37.0,29.59,NNE,22,2.5,2.7,33,0.00,,,0.00,meteobridge,2013-04-06 18:02:00,
2013-04-06 21:07:00,67.1,37.0,29.59,NNE,22,1.1,1.3,33,0.00,,,0.00,meteobridge,2013-04-06 18:07:00,
2013-04-06 21:12:00,67.1,37.0,29.59,ENE,68,0.0,0.0,33,0.00,,,0.00,meteobridge,2013-04-06 18:12:00,
2013-04-06 21:18:00,67.1,37.0,29.59,NE,45,0.0,0.0,33,0.00,,,0.00,meteobridge,2013-04-06 18:18:00,
2013-04-06 21:23:00,66.9,36.9,29.59,ENE,68,0.0,0.0,33,0.00,,,0.00,meteobridge,2013-04-06 18:23:00,
2013-04-06 21:28:00,66.9,36.9,29.62,ENE,68,0.0,0.0,33,0.00,,,0.00,meteobridge,2013-04-06 18:28:00,
2013-04-06 21:33:00,66.7,36.7,29.62,NNE,22,1.1,2.2,33,0.00,,,0.00,meteobridge,2013-04-06 18:33:00,
2013-04-06 21:38:00,66.6,36.7,29.62,NE,45,1.1,1.3,33,0.00,,,0.00,meteobridge,2013-04-06 18:38:00,
2013-04-06 21:43:00,66.4,36.5,29.59,SE,135,0.0,1.1,33,0.00,,,0.00,meteobridge,2013-04-06 18:43:00,
2013-04-06 21:48:00,66.4,36.5,29.59,NNE,22,3.8,3.8,33,0.00,,,0.00,meteobridge,2013-04-06 18:48:00,
2013-04-06 21:53:00,66.4,36.5,29.59,NNE,22,0.0,2.0,33,0.00,,,0.00,meteobridge,2013-04-06 18:53:00,
2013-04-06 21:58:00,66.4,35.6,29.62,NNE,22,2.5,2.5,32,0.00,,,0.00,meteobridge,2013-04-06 18:58:00,
2013-04-06 22:04:00,66.2,35.6,29.62,NNE,22,0.9,1.3,32,0.00,,,0.00,meteobridge,2013-04-06 19:04:00,
2013-04-06 22:10:00,66.2,35.6,29.62,ENE,68,1.6,1.6,32,0.00,,,0.00,meteobridge,2013-04-06 19:10:00,
2013-04-06 22:15:00,66.4,34.9,29.62,NE,45,0.0,1.1,31,0.00,,,0.00,meteobridge,2013-04-06 19:15:00,
2013-04-06 22:20:00,66.4,34.9,29.62,NNE,22,2.2,2.5,31,0.00,,,0.00,meteobridge,2013-04-06 19:20:00,
2013-04-06 22:25:00,66.2,33.1,29.62,North,0,0.0,1.1,29,0.00,,,0.00,meteobridge,2013-04-06 19:25:00,
2013-04-06 22:30:00,66.2,32.2,29.62,NNE,22,0.0,2.5,28,0.00,,,0.00,meteobridge,2013-04-06 19:30:00,
2013-04-06 22:35:00,66.2,31.3,29.62,ENE,68,2.0,2.0,27,0.00,,,0.00,meteobridge,2013-04-06 19:35:00,
2013-04-06 22:40:00,66.2,31.3,29.59,NNE,22,2.0,2.0,27,0.00,,,0.00,meteobridge,2013-04-06 19:40:00,
2013-04-06 22:45:00,66.0,31.1,29.59,NNE,22,1.1,2.7,27,0.00,,,0.00,meteobridge,2013-04-06 19:45:00,
2013-04-06 22:50:00,66.0,30.2,29.59,NE,45,1.3,1.6,26,0.00,,,0.00,meteobridge,2013-04-06 19:50:00,
2013-04-06 22:55:00,66.0,30.2,29.56,NNE,22,1.1,2.7,26,0.00,,,0.00,meteobridge,2013-04-06 19:55:00,
2013-04-06 23:00:00,66.0,30.2,29.56,ENE,68,1.1,1.3,26,0.00,,,0.00,meteobridge,2013-04-06 20:00:00,
2013-04-06 23:05:00,66.0,31.1,29.56,ENE,68,1.3,3.4,27,0.00,,,0.00,meteobridge,2013-04-06 20:05:00,
2013-04-06 23:10:00,66.0,32.0,29.59,East,90,1.6,3.1,28,0.00,,,0.00,meteobridge,2013-04-06 20:10:00,
2013-04-06 23:15:00,66.0,32.9,29.59,NE,45,1.1,1.6,29,0.00,,,0.00,meteobridge,2013-04-06 20:15:00,
2013-04-06 23:21:00,66.0,33.8,29.59,NNE,22,1.6,2.9,30,0.00,,,0.00,meteobridge,2013-04-06 20:21:00,
2013-04-06 23:26:00,66.2,34.0,29.59,NNE,22,1.6,2.2,30,0.00,,,0.00,meteobridge,2013-04-06 20:26:00,
2013-04-06 23:31:00,66.4,33.3,29.59,NNE,22,0.0,3.6,29,0.00,,,0.00,meteobridge,2013-04-06 20:31:00,
2013-04-06 23:36:00,66.6,32.5,29.59,North,0,1.3,3.1,28,0.00,,,0.00,meteobridge,2013-04-06 20:36:00,
2013-04-06 23:41:00,66.6,31.6,29.59,ENE,68,1.3,2.5,27,0.00,,,0.00,meteobridge,2013-04-06 20:41:00,
2013-04-06 23:46:00,66.6,31.6,29.59,NNE,22,2.5,2.5,27,0.00,,,0.00,meteobridge,2013-04-06 20:46:00,
2013-04-06 23:51:00,66.6,31.6,29.59,North,0,1.3,4.3,27,0.00,,,0.00,meteobridge,2013-04-06 20:51:00,
2013-04-06 23:56:00,66.6,31.6,29.56,NE,45,1.3,2.5,27,0.00,,,0.00,meteobridge,2013-04-06 20:56:00,